createdAt,value
2023-02-19T00:01:52.503Z,56.48
2023-02-19T00:04:24.797Z,56.58
2023-02-19T00:06:53.205Z,57.05
2023-02-19T00:09:21.828Z,58.46
2023-02-19T00:11:50.097Z,59.09
2023-02-19T00:14:21.432Z,58.49
2023-02-19T00:16:50.094Z,58.33
2023-02-19T00:19:20.480Z,58.05
2023-02-19T00:21:52.230Z,57.69
2023-02-19T00:24:21.376Z,58.39
2023-02-19T00:26:49.652Z,59.74
2023-02-19T00:29:20.647Z,59.51
2023-02-19T00:31:49.197Z,58.87
2023-02-19T00:34:17.091Z,58.17
2023-02-19T00:36:45.590Z,57.72
2023-02-19T00:39:16.219Z,57.25
2023-02-19T00:41:46.660Z,57.29
2023-02-19T00:44:15.138Z,57.22
2023-02-19T00:46:46.280Z,57.21
2023-02-19T00:49:18.384Z,57.19
2023-02-19T00:51:47.598Z,57.32
2023-02-19T00:54:15.542Z,57.28
2023-02-19T00:56:43.925Z,56.61
2023-02-19T00:59:11.739Z,56.38
2023-02-19T01:01:40.304Z,55.98
2023-02-19T01:04:08.464Z,57.31
2023-02-19T01:06:37.301Z,57.65
2023-02-19T01:09:07.421Z,56.92
2023-02-19T01:11:36.142Z,58.00
2023-02-19T01:14:05.187Z,58.33
2023-02-19T01:16:33.357Z,57.95
2023-02-19T01:19:01.327Z,57.23
2023-02-19T01:21:31.297Z,56.89
2023-02-19T01:23:59.996Z,56.35
2023-02-19T01:26:31.670Z,56.09
2023-02-19T01:29:01.019Z,54.31
2023-02-19T01:31:30.460Z,54.39
2023-02-19T01:34:00.766Z,55.45
2023-02-19T01:36:30.463Z,55.22
2023-02-19T01:39:01.064Z,55.22
2023-02-19T01:41:29.492Z,54.98
2023-02-19T01:44:01.931Z,57.15
2023-02-19T01:46:35.569Z,54.81
2023-02-19T01:49:11.080Z,54.53
2023-02-19T01:52:01.514Z,54.22
2023-02-19T01:54:32.906Z,55.68
2023-02-19T01:57:04.876Z,55.34
2023-02-19T01:59:34.197Z,55.46
2023-02-19T02:02:02.642Z,56.20
2023-02-19T02:04:34.013Z,55.29
2023-02-19T02:07:24.614Z,54.99
2023-02-19T02:10:12.696Z,53.81
2023-02-19T02:12:40.925Z,55.01
2023-02-19T02:15:09.599Z,54.45
2023-02-19T02:18:04.000Z,53.71
2023-02-19T02:20:40.836Z,55.09
2023-02-19T02:23:50.365Z,54.53
2023-02-19T02:26:55.871Z,54.32
2023-02-19T02:29:53.245Z,53.89
2023-02-19T02:32:27.316Z,53.80
2023-02-19T02:35:05.549Z,53.87
2023-02-19T02:37:37.638Z,54.02
2023-02-19T02:40:09.808Z,54.12
2023-02-19T02:42:40.810Z,53.88
2023-02-19T02:45:36.580Z,53.71
2023-02-19T02:48:25.179Z,53.28
2023-02-19T02:51:10.660Z,52.72
2023-02-19T02:54:39.714Z,52.77
2023-02-19T02:57:15.182Z,52.01
2023-02-19T02:59:53.939Z,52.67
2023-02-19T03:02:31.219Z,51.97
2023-02-19T03:05:34.309Z,51.50
2023-02-19T03:08:12.196Z,51.57
2023-02-19T03:10:51.472Z,51.25
2023-02-19T03:13:46.528Z,51.13
2023-02-19T03:16:42.952Z,51.79
2023-02-19T03:19:22.196Z,51.07
2023-02-19T03:21:57.668Z,51.47
2023-02-19T03:24:52.493Z,51.79
2023-02-19T03:27:22.295Z,51.91
2023-02-19T03:29:59.226Z,51.74
2023-02-19T03:32:36.761Z,50.91
2023-02-19T03:35:27.652Z,51.63
2023-02-19T03:38:23.019Z,51.10
2023-02-19T03:41:07.868Z,53.79
2023-02-19T03:44:08.375Z,54.61
2023-02-19T03:47:05.459Z,56.40
2023-02-19T03:49:50.152Z,55.32
2023-02-19T03:52:42.236Z,55.32
2023-02-19T03:55:17.382Z,55.67
2023-02-19T03:57:59.036Z,55.03
2023-02-19T04:00:45.306Z,54.56
2023-02-19T04:03:19.539Z,52.34
2023-02-19T04:05:58.875Z,52.97
2023-02-19T04:08:28.469Z,53.17
2023-02-19T04:11:03.195Z,53.09
2023-02-19T04:13:48.979Z,52.37
2023-02-19T04:16:22.470Z,52.29
2023-02-19T04:18:55.452Z,52.44
2023-02-19T04:21:24.240Z,52.33
2023-02-19T04:23:52.717Z,52.17
2023-02-19T04:26:23.366Z,52.36
2023-02-19T04:28:51.429Z,53.06
2023-02-19T04:31:19.819Z,52.97
2023-02-19T04:33:48.080Z,52.12
2023-02-19T04:36:15.835Z,51.52
2023-02-19T04:38:44.128Z,51.68
2023-02-19T04:41:12.419Z,51.36
2023-02-19T04:43:40.736Z,51.66
2023-02-19T04:46:08.831Z,52.11
2023-02-19T04:48:37.080Z,51.24
2023-02-19T04:51:08.573Z,51.73
2023-02-19T04:53:37.754Z,52.47
2023-02-19T04:56:11.698Z,52.93
2023-02-19T04:58:41.571Z,53.65
2023-02-19T05:01:10.951Z,53.28
2023-02-19T05:03:39.543Z,53.52
2023-02-19T05:06:11.019Z,53.17
2023-02-19T05:08:40.142Z,50.97
2023-02-19T05:11:11.134Z,50.73
2023-02-19T05:13:40.201Z,50.61
2023-02-19T05:16:15.070Z,50.80
2023-02-19T05:18:45.374Z,51.89
2023-02-19T05:21:15.904Z,51.66
2023-02-19T05:23:44.741Z,51.90
2023-02-19T05:26:19.423Z,51.02
2023-02-19T05:28:50.152Z,50.09
2023-02-19T05:31:18.986Z,49.55
2023-02-19T05:33:51.470Z,49.00
2023-02-19T05:36:21.801Z,48.99
2023-02-19T05:38:57.768Z,48.86
2023-02-19T05:41:28.513Z,48.02
2023-02-19T05:43:58.046Z,48.10
2023-02-19T05:46:29.971Z,48.07
2023-02-19T05:49:01.426Z,48.40
2023-02-19T05:51:30.154Z,48.26
2023-02-19T05:53:58.422Z,48.75
2023-02-19T05:56:40.328Z,48.12
2023-02-19T05:59:18.339Z,48.11
2023-02-19T06:01:46.510Z,48.77
2023-02-19T06:04:15.812Z,48.52
2023-02-19T06:06:43.769Z,49.47
2023-02-19T06:09:12.450Z,50.02
2023-02-19T06:11:41.088Z,49.75
2023-02-19T06:14:09.260Z,51.36
2023-02-19T06:16:37.412Z,49.60
2023-02-19T06:19:05.775Z,50.01
2023-02-19T06:21:34.056Z,49.32
2023-02-19T06:24:07.022Z,47.94
2023-02-19T06:26:35.125Z,48.61
2023-02-19T06:29:03.845Z,48.62
2023-02-19T06:31:32.275Z,48.04
2023-02-19T06:34:04.674Z,48.48
2023-02-19T06:36:32.720Z,48.22
2023-02-19T06:39:02.297Z,48.58
2023-02-19T06:41:30.149Z,48.81
2023-02-19T06:43:59.200Z,48.45
2023-02-19T06:46:27.124Z,48.12
2023-02-19T06:48:55.369Z,49.35
2023-02-19T06:51:27.478Z,48.15
2023-02-19T06:53:56.273Z,48.59
2023-02-19T06:56:28.354Z,48.54
2023-02-19T06:59:01.641Z,48.13
2023-02-19T07:01:49.475Z,48.43
2023-02-19T07:04:18.063Z,48.38
2023-02-19T07:06:45.825Z,50.34
2023-02-19T07:09:14.066Z,51.98
2023-02-19T07:11:42.730Z,51.03
2023-02-19T07:14:16.030Z,51.25
2023-02-19T07:16:44.706Z,51.56
2023-02-19T07:19:13.247Z,52.30
2023-02-19T07:21:42.658Z,52.43
2023-02-19T07:24:10.885Z,53.74
2023-02-19T07:26:39.059Z,53.19
2023-02-19T07:29:07.944Z,53.46
2023-02-19T07:31:36.415Z,53.05
2023-02-19T07:34:05.094Z,54.30
2023-02-19T07:36:32.928Z,53.21
2023-02-19T07:39:01.043Z,52.92
2023-02-19T07:41:28.959Z,53.91
2023-02-19T07:43:59.358Z,53.14
2023-02-19T07:46:27.748Z,52.34
2023-02-19T07:48:56.173Z,51.94
2023-02-19T07:51:24.134Z,52.77
2023-02-19T07:53:52.403Z,53.60
2023-02-19T07:56:21.174Z,53.25
2023-02-19T07:58:49.673Z,51.73
2023-02-19T08:01:40.221Z,51.86
2023-02-19T08:04:08.846Z,52.46
2023-02-19T08:06:36.586Z,51.13
2023-02-19T08:09:06.112Z,52.32
2023-02-19T08:11:52.714Z,51.60
2023-02-19T08:14:25.082Z,50.59
2023-02-19T08:16:53.796Z,50.78
2023-02-19T08:19:22.659Z,50.11
2023-02-19T08:21:50.982Z,50.26
2023-02-19T08:24:19.313Z,49.90
2023-02-19T08:26:47.207Z,50.82
2023-02-19T08:29:15.810Z,51.86
2023-02-19T08:31:43.762Z,52.43
2023-02-19T08:34:12.102Z,53.08
2023-02-19T08:36:40.287Z,53.26
2023-02-19T08:39:08.639Z,53.38
2023-02-19T08:41:36.658Z,53.36
2023-02-19T08:44:04.940Z,53.02
2023-02-19T08:46:34.412Z,53.19
2023-02-19T08:49:02.746Z,53.12
2023-02-19T08:51:30.897Z,52.60
2023-02-19T08:53:59.118Z,51.75
2023-02-19T08:56:26.883Z,51.54
2023-02-19T08:58:55.119Z,51.18
2023-02-19T09:01:24.026Z,50.97
2023-02-19T09:03:53.528Z,52.11
2023-02-19T09:06:21.515Z,52.73
2023-02-19T09:08:50.021Z,53.38
2023-02-19T09:11:18.390Z,51.82
2023-02-19T09:13:46.706Z,52.53
2023-02-19T09:16:14.546Z,53.20
2023-02-19T09:18:43.455Z,52.39
2023-02-19T09:21:11.856Z,52.52
2023-02-19T09:23:40.725Z,53.81
2023-02-19T09:26:11.691Z,53.30
2023-02-19T09:28:42.165Z,53.82
2023-02-19T09:31:13.127Z,53.21
2023-02-19T09:33:46.057Z,53.44
2023-02-19T09:36:16.120Z,53.27
2023-02-19T09:38:44.976Z,53.03
2023-02-19T09:41:31.006Z,54.08
2023-02-19T09:44:02.103Z,51.68
2023-02-19T09:46:39.404Z,52.53
2023-02-19T09:49:14.230Z,52.49
2023-02-19T09:51:47.600Z,52.90
2023-02-19T09:54:23.168Z,52.16
2023-02-19T09:56:53.527Z,52.38
2023-02-19T09:59:26.354Z,52.26
2023-02-19T10:02:03.244Z,51.97
2023-02-19T10:04:31.934Z,51.73
2023-02-19T10:07:03.790Z,52.37
2023-02-19T10:09:35.298Z,52.35
2023-02-19T10:12:03.420Z,52.76
2023-02-19T10:14:42.574Z,51.92
2023-02-19T10:17:21.223Z,52.65
2023-02-19T10:19:49.928Z,52.21
2023-02-19T10:22:19.181Z,52.92
2023-02-19T10:24:52.374Z,51.69
2023-02-19T10:27:20.887Z,52.64
2023-02-19T10:29:51.468Z,52.10
2023-02-19T10:32:30.040Z,50.95
2023-02-19T10:35:12.467Z,50.10
2023-02-19T10:37:49.057Z,49.08
2023-02-19T10:40:20.042Z,47.80
2023-02-19T10:42:50.754Z,48.02
2023-02-19T10:45:34.731Z,47.29
2023-02-19T10:48:03.841Z,47.13
2023-02-19T10:50:39.602Z,47.05
2023-02-19T10:53:25.337Z,46.79
2023-02-19T10:56:13.217Z,47.10
2023-02-19T10:58:45.209Z,47.21
2023-02-19T11:01:23.680Z,48.51
2023-02-19T11:03:53.863Z,47.44
2023-02-19T11:06:27.166Z,47.34
2023-02-19T11:09:01.418Z,47.62
2023-02-19T11:11:36.884Z,47.00
2023-02-19T11:14:17.245Z,48.51
2023-02-19T11:17:00.303Z,47.97
2023-02-19T11:19:49.034Z,49.03
2023-02-19T11:22:42.213Z,48.83
2023-02-19T11:25:17.336Z,49.70
2023-02-19T11:28:02.890Z,48.96
2023-02-19T11:30:33.252Z,49.83
2023-02-19T11:33:20.065Z,49.65
2023-02-19T11:35:49.923Z,49.90
2023-02-19T11:38:20.708Z,50.15
2023-02-19T11:41:24.087Z,50.50
2023-02-19T11:44:01.473Z,51.15
2023-02-19T11:46:32.510Z,50.95
2023-02-19T11:49:09.345Z,51.32
2023-02-19T11:51:52.721Z,51.42
2023-02-19T11:54:32.919Z,51.59
2023-02-19T11:57:26.856Z,50.80
2023-02-19T12:00:26.139Z,50.74
2023-02-19T12:03:12.604Z,50.95
2023-02-19T12:05:59.178Z,51.01
2023-02-19T12:09:15.140Z,51.20
2023-02-19T12:12:01.575Z,51.25
2023-02-19T12:15:08.330Z,51.50
2023-02-19T12:17:58.636Z,51.73
2023-02-19T12:20:43.020Z,51.02
2023-02-19T12:23:44.753Z,51.15
2023-02-19T12:26:29.741Z,51.71
2023-02-19T12:29:18.948Z,51.24
2023-02-19T12:32:03.156Z,50.35
2023-02-19T12:34:40.539Z,50.13
2023-02-19T12:37:28.198Z,49.62
2023-02-19T12:40:04.008Z,50.15
2023-02-19T12:42:51.263Z,49.73
2023-02-19T12:45:34.019Z,50.71
2023-02-19T12:48:20.153Z,49.79
2023-02-19T12:50:53.652Z,49.83
2023-02-19T12:53:33.803Z,50.89
2023-02-19T12:56:10.932Z,50.81
2023-02-19T12:58:48.614Z,50.21
2023-02-19T13:01:29.218Z,50.03
2023-02-19T13:04:19.070Z,50.87
2023-02-19T13:06:58.094Z,50.42
2023-02-19T13:09:31.736Z,50.38
2023-02-19T13:12:07.795Z,49.95
2023-02-19T13:14:49.696Z,49.78
2023-02-19T13:17:32.362Z,50.17
2023-02-19T13:20:27.619Z,50.30
2023-02-19T13:23:43.359Z,50.69
2023-02-19T13:26:38.432Z,51.01
2023-02-19T13:29:25.040Z,51.73
2023-02-19T13:32:23.610Z,51.55
2023-02-19T13:35:13.139Z,52.44
2023-02-19T13:37:41.693Z,51.86
2023-02-19T13:40:28.659Z,52.33
2023-02-19T13:42:59.599Z,52.51
2023-02-19T13:45:37.422Z,52.47
2023-02-19T13:48:31.885Z,52.32
2023-02-19T13:51:21.953Z,52.77
2023-02-19T13:53:59.896Z,52.39
2023-02-19T13:56:31.681Z,52.60
2023-02-19T13:59:13.690Z,52.57
2023-02-19T14:01:54.066Z,52.74
2023-02-19T14:04:41.723Z,53.09
2023-02-19T14:07:10.355Z,52.77
2023-02-19T14:09:39.513Z,52.65
2023-02-19T14:12:10.694Z,52.54
2023-02-19T14:14:49.779Z,52.37
2023-02-19T14:17:36.943Z,53.56
2023-02-19T14:20:33.399Z,53.34
2023-02-19T14:23:15.643Z,54.38
2023-02-19T14:25:52.342Z,54.34
2023-02-19T14:28:30.371Z,55.03
2023-02-19T14:31:01.308Z,54.91
2023-02-19T14:33:35.217Z,55.03
2023-02-19T14:36:12.418Z,55.07
2023-02-19T14:39:31.543Z,54.95
2023-02-19T14:42:02.410Z,56.33
2023-02-19T14:44:35.793Z,56.02
2023-02-19T14:47:05.916Z,56.54
2023-02-19T14:49:49.861Z,56.57
2023-02-19T14:52:51.908Z,56.40
2023-02-19T14:55:38.215Z,56.37
2023-02-19T14:58:11.157Z,56.88
2023-02-19T15:00:41.774Z,57.14
2023-02-19T15:03:30.479Z,56.90
2023-02-19T15:06:07.812Z,58.12
2023-02-19T15:08:40.188Z,58.21
2023-02-19T15:11:12.837Z,58.12
2023-02-19T15:13:45.916Z,57.80
2023-02-19T15:16:20.193Z,58.00
2023-02-19T15:18:50.390Z,58.81
2023-02-19T15:21:26.769Z,58.44
2023-02-19T15:24:00.530Z,58.77
2023-02-19T15:26:43.685Z,58.20
2023-02-19T15:29:14.290Z,58.03
2023-02-19T15:31:47.603Z,57.48
2023-02-19T15:34:21.869Z,57.78
2023-02-19T15:36:53.556Z,58.16
2023-02-19T15:39:44.049Z,57.73
2023-02-19T15:42:20.229Z,57.78
2023-02-19T15:45:17.162Z,57.47
2023-02-19T15:47:59.327Z,57.69
2023-02-19T15:50:31.230Z,57.81
2023-02-19T15:53:05.192Z,57.64
2023-02-19T15:55:48.299Z,57.65
2023-02-19T15:58:29.157Z,57.20
2023-02-19T16:01:08.586Z,56.74
2023-02-19T16:03:37.583Z,57.33
2023-02-19T16:06:16.999Z,58.38
2023-02-19T16:08:47.253Z,58.51
2023-02-19T16:11:24.311Z,58.21
2023-02-19T16:13:52.908Z,57.52
2023-02-19T16:16:23.627Z,58.05
2023-02-19T16:18:53.341Z,58.52
2023-02-19T16:21:25.033Z,58.81
2023-02-19T16:24:16.070Z,58.09
2023-02-19T16:26:45.682Z,60.16
2023-02-19T16:29:33.249Z,61.37
2023-02-19T16:32:04.062Z,61.56
2023-02-19T16:34:50.940Z,62.50
2023-02-19T16:37:40.804Z,62.20
2023-02-19T16:40:43.758Z,63.29
2023-02-19T16:43:14.685Z,61.84
2023-02-19T16:45:47.806Z,63.16
2023-02-19T16:48:16.250Z,63.13
2023-02-19T16:50:46.495Z,63.90
2023-02-19T16:53:25.331Z,62.87
2023-02-19T16:55:53.626Z,63.71
2023-02-19T16:58:21.711Z,64.11
2023-02-19T17:00:50.109Z,64.13
2023-02-19T17:03:21.731Z,64.36
2023-02-19T17:05:51.282Z,63.82
2023-02-19T17:08:35.398Z,64.35
2023-02-19T17:11:06.720Z,62.71
2023-02-19T17:13:34.631Z,64.30
2023-02-19T17:16:02.934Z,64.60
2023-02-19T17:18:32.050Z,63.64
2023-02-19T17:21:10.290Z,64.27
2023-02-19T17:23:38.519Z,64.53
2023-02-19T17:26:06.709Z,64.23
2023-02-19T17:28:35.336Z,64.08
2023-02-19T17:31:03.675Z,64.00
2023-02-19T17:33:31.489Z,63.85
2023-02-19T17:36:00.324Z,64.36
2023-02-19T17:38:29.279Z,64.49
2023-02-19T17:40:57.854Z,63.78
2023-02-19T17:43:25.985Z,63.59
2023-02-19T17:45:54.496Z,64.17
2023-02-19T17:48:22.327Z,64.67
2023-02-19T17:50:52.448Z,63.75
2023-02-19T17:53:20.489Z,62.90
2023-02-19T17:55:48.728Z,63.25
2023-02-19T17:58:16.586Z,62.48
2023-02-19T18:00:44.841Z,62.20
2023-02-19T18:03:12.731Z,61.38
2023-02-19T18:05:40.999Z,60.53
2023-02-19T18:08:09.289Z,61.53
2023-02-19T18:10:38.448Z,60.41
2023-02-19T18:13:06.395Z,60.52
2023-02-19T18:15:35.130Z,59.69
2023-02-19T18:18:05.204Z,60.45
2023-02-19T18:20:33.447Z,60.56
2023-02-19T18:23:01.630Z,60.57
2023-02-19T18:25:29.842Z,60.58
2023-02-19T18:27:59.589Z,59.80
2023-02-19T18:30:28.953Z,59.89
2023-02-19T18:32:57.758Z,60.15
2023-02-19T18:35:26.110Z,59.60
2023-02-19T18:37:55.237Z,59.89
2023-02-19T18:40:26.204Z,59.46
2023-02-19T18:42:54.529Z,60.09
2023-02-19T18:45:22.970Z,59.99
2023-02-19T18:47:51.204Z,60.78
2023-02-19T18:50:21.414Z,60.19
2023-02-19T18:52:49.624Z,60.17
2023-02-19T18:55:18.413Z,60.36
2023-02-19T18:57:47.584Z,59.94
2023-02-19T19:00:23.271Z,60.29
2023-02-19T19:02:51.657Z,60.00
2023-02-19T19:05:23.353Z,59.37
2023-02-19T19:07:54.715Z,59.34
2023-02-19T19:10:24.508Z,59.17
2023-02-19T19:12:54.549Z,59.90
2023-02-19T19:15:25.341Z,59.74
2023-02-19T19:17:53.511Z,59.71
2023-02-19T19:20:24.177Z,60.36
2023-02-19T19:22:53.846Z,61.62
2023-02-19T19:25:35.292Z,60.26
2023-02-19T19:28:08.861Z,60.85
2023-02-19T19:30:43.922Z,61.07
2023-02-19T19:33:17.764Z,60.29
2023-02-19T19:35:48.291Z,60.09
2023-02-19T19:38:17.985Z,59.46
2023-02-19T19:40:51.142Z,59.89
2023-02-19T19:43:21.498Z,59.65
2023-02-19T19:45:51.066Z,60.89
2023-02-19T19:48:19.288Z,59.38
2023-02-19T19:50:48.386Z,59.33
2023-02-19T19:53:16.820Z,58.03
2023-02-19T19:55:45.380Z,58.83
2023-02-19T19:58:14.706Z,57.70
2023-02-19T20:00:45.299Z,58.21
2023-02-19T20:03:14.727Z,57.96
2023-02-19T20:05:43.512Z,58.20
2023-02-19T20:08:14.177Z,58.80
2023-02-19T20:10:45.410Z,58.25
2023-02-19T20:13:26.470Z,58.31
2023-02-19T20:15:57.213Z,58.16
2023-02-19T20:18:27.765Z,57.67
2023-02-19T20:20:58.900Z,58.08
2023-02-19T20:23:28.344Z,58.17
2023-02-19T20:25:58.768Z,58.04
2023-02-19T20:28:26.795Z,58.49
2023-02-19T20:30:59.621Z,58.42
2023-02-19T20:33:27.599Z,58.28
2023-02-19T20:35:57.252Z,58.35
2023-02-19T20:38:25.620Z,58.00
2023-02-19T20:40:53.991Z,57.68
2023-02-19T20:43:21.848Z,57.72
2023-02-19T20:45:50.276Z,57.83
2023-02-19T20:48:18.745Z,59.11
2023-02-19T20:50:47.137Z,57.22
2023-02-19T20:53:15.464Z,57.96
2023-02-19T20:55:43.647Z,57.72
2023-02-19T20:58:11.389Z,57.11
2023-02-19T21:00:39.714Z,57.60
2023-02-19T21:03:09.396Z,58.21
2023-02-19T21:05:38.652Z,57.96
2023-02-19T21:08:07.881Z,59.44
2023-02-19T21:10:35.890Z,58.48
2023-02-19T21:13:04.357Z,59.23
2023-02-19T21:15:32.802Z,58.55
2023-02-19T21:18:01.027Z,58.23
2023-02-19T21:20:29.074Z,59.05
2023-02-19T21:22:57.478Z,59.22
2023-02-19T21:25:25.499Z,58.84
2023-02-19T21:27:54.188Z,59.38
2023-02-19T21:30:22.207Z,59.44
2023-02-19T21:32:50.524Z,58.73
2023-02-19T21:35:18.806Z,58.83
2023-02-19T21:37:47.390Z,59.35
2023-02-19T21:40:15.293Z,59.25
2023-02-19T21:42:44.864Z,59.23
2023-02-19T21:45:13.232Z,58.65
2023-02-19T21:47:43.284Z,59.13
2023-02-19T21:50:11.368Z,59.53
2023-02-19T21:52:40.286Z,59.57
2023-02-19T21:55:08.338Z,59.32
2023-02-19T21:57:36.596Z,58.61
2023-02-19T22:00:07.112Z,58.65
2023-02-19T22:02:35.610Z,59.31
2023-02-19T22:05:03.996Z,58.41
2023-02-19T22:07:32.277Z,57.76
2023-02-19T22:10:00.217Z,58.32
2023-02-19T22:12:28.355Z,58.27
2023-02-19T22:14:56.189Z,58.15
2023-02-19T22:17:24.601Z,58.76
2023-02-19T22:19:52.695Z,59.16
2023-02-19T22:22:20.873Z,58.73
2023-02-19T22:24:49.022Z,58.82
2023-02-19T22:27:17.234Z,59.19
2023-02-19T22:29:45.414Z,60.92
2023-02-19T22:32:13.896Z,60.26
2023-02-19T22:34:42.238Z,59.23
2023-02-19T22:37:11.026Z,58.64
2023-02-19T22:39:39.129Z,59.31
2023-02-19T22:42:07.287Z,59.29
2023-02-19T22:44:35.734Z,59.15
2023-02-19T22:47:03.906Z,60.28
2023-02-19T22:49:31.692Z,61.76
2023-02-19T22:52:09.050Z,61.63
2023-02-19T22:54:37.561Z,60.86
2023-02-19T22:57:06.008Z,61.75
2023-02-19T22:59:33.863Z,62.32
2023-02-19T23:02:02.040Z,62.32
2023-02-19T23:04:30.041Z,62.62
2023-02-19T23:06:59.548Z,62.08
2023-02-19T23:09:29.529Z,63.47
2023-02-19T23:12:07.378Z,62.24
2023-02-19T23:14:35.931Z,61.63
2023-02-19T23:17:04.282Z,61.84
2023-02-19T23:19:33.139Z,60.98
2023-02-19T23:22:01.539Z,61.45
2023-02-19T23:24:29.335Z,61.54
2023-02-19T23:26:58.020Z,60.68
2023-02-19T23:29:27.169Z,62.34
2023-02-19T23:31:55.726Z,62.17
2023-02-19T23:34:24.725Z,62.80
2023-02-19T23:36:54.796Z,61.81
2023-02-19T23:39:22.990Z,61.13
2023-02-19T23:41:54.357Z,60.36
2023-02-19T23:44:24.079Z,60.97
2023-02-19T23:46:52.827Z,60.06
2023-02-19T23:49:21.016Z,61.13
2023-02-19T23:51:49.914Z,63.26
2023-02-19T23:54:17.853Z,63.19
2023-02-19T23:56:46.062Z,63.38
2023-02-19T23:59:14.096Z,63.47
